Jaborandi, Brazil
Current Conditions -  °F | °C
As of 9:00 AM on Saturday 25 Oct 2014 (Local Time) from SBRP Reporting Station
Light Rain Light Rain  
Wind Chill: 68°   Ceiling: 8000
Heat Index: 68°   Visibility: 4mi
Dew Point: 64°   Wind: 5mph
Humidity: 88%   Direction: 80°E
Pressure: 30"   Gusts: NA
Location:  20.69°S, 48.41°W
Report Text: SBRP 251100Z 08004KT 6000 -RA FEW004 SCT040 OVC080 20/18 Q1016
Loading
Personal Weather Stations






























Interactive Weather Map
Tropical Storm Tracking
New forecast layout! Learn more

10-Day Weather Forecast

Advertisements
Track Severe Weather on mobile